createdAt,value
2018-09-29T01:19:45.170Z,0.00
2018-09-29T01:20:44.984Z,0.00
2018-09-29T01:34:55.657Z,0.00
2018-09-29T02:45:38.371Z,0.00
2018-09-29T02:46:38.235Z,0.00
2018-09-29T02:48:54.325Z,0.00
2018-09-29T03:22:23.882Z,0.00
2018-09-29T04:00:28.969Z,0.00
2018-09-29T04:01:28.944Z,0.00
2018-09-29T04:02:29.483Z,0.00
2018-09-29T04:03:28.933Z,0.00
2018-09-29T04:04:28.910Z,0.00
2018-09-29T04:05:28.899Z,0.00
2018-09-29T04:06:28.975Z,0.00
2018-09-29T04:07:28.888Z,0.00
2018-09-29T04:08:28.890Z,0.00
2018-09-29T04:09:28.854Z,0.00
2018-09-29T04:10:28.846Z,0.00
2018-09-29T04:11:28.831Z,0.00
2018-09-29T04:12:28.832Z,0.00
2018-09-29T04:13:28.834Z,0.00
2018-09-29T04:14:28.796Z,0.00
2018-09-29T04:15:28.785Z,0.00
2018-09-29T04:16:28.774Z,0.00
2018-09-29T04:17:28.775Z,0.00
2018-09-29T04:18:28.751Z,0.00
2018-09-29T04:19:28.813Z,0.00
2018-09-29T04:20:28.781Z,0.00
2018-09-29T04:21:28.729Z,0.00
2018-09-29T04:22:28.735Z,0.00
2018-09-29T04:23:28.693Z,0.00
2018-09-29T04:24:28.682Z,0.00
2018-09-29T04:25:28.671Z,0.00
2018-09-29T04:26:28.662Z,0.00
2018-09-29T04:27:28.669Z,0.00
2018-09-29T04:28:28.636Z,0.00
2018-09-29T04:29:28.711Z,0.00
2018-09-29T04:30:28.630Z,0.00
2018-09-29T04:31:28.612Z,0.00
2018-09-29T04:32:28.676Z,0.00
2018-09-29T04:33:28.584Z,0.00
2018-09-29T04:34:28.572Z,0.00
2018-09-29T04:35:28.736Z,0.00
2018-09-29T04:36:28.550Z,0.00
2018-09-29T04:37:28.550Z,0.00
2018-09-29T04:38:28.556Z,0.00
2018-09-29T04:39:28.516Z,0.00
2018-09-29T04:40:28.505Z,0.00
2018-09-29T04:41:28.494Z,0.00
2018-09-29T04:42:28.499Z,0.00
2018-09-29T04:43:28.496Z,0.00
2018-09-29T04:44:28.533Z,0.00
2018-09-29T04:45:28.541Z,0.00
2018-09-29T04:46:28.460Z,0.00
2018-09-29T04:47:28.437Z,0.00
2018-09-29T04:48:28.417Z,0.00
2018-09-29T04:49:28.407Z,4.00
2018-09-29T04:50:28.394Z,4.00
2018-09-29T04:51:28.422Z,0.00
2018-09-29T04:52:28.380Z,0.00
2018-09-29T04:53:28.359Z,4.00
2018-09-29T04:54:28.346Z,0.00
2018-09-29T04:55:28.339Z,4.00
2018-09-29T04:56:28.358Z,8.00
2018-09-29T04:57:28.336Z,4.00
2018-09-29T04:58:28.301Z,12.00
2018-09-29T04:59:28.289Z,12.00
2018-09-29T05:00:28.278Z,16.00
2018-09-29T05:01:28.274Z,8.00
2018-09-29T05:02:28.259Z,16.00
2018-09-29T05:03:28.263Z,16.00
2018-09-29T05:04:28.236Z,16.00
2018-09-29T05:05:28.242Z,20.00
2018-09-29T05:06:28.255Z,20.00
2018-09-29T05:07:28.201Z,24.00
2018-09-29T05:08:28.204Z,24.00
2018-09-29T05:09:28.201Z,36.00
2018-09-29T05:10:28.179Z,32.00
2018-09-29T05:11:28.160Z,36.00
2018-09-29T05:12:28.183Z,36.00
2018-09-29T05:13:28.149Z,44.00
2018-09-29T05:14:28.122Z,52.00
2018-09-29T05:15:28.163Z,48.00
2018-09-29T05:16:28.100Z,56.00
2018-09-29T05:17:28.108Z,64.00
2018-09-29T05:18:28.196Z,64.00
2018-09-29T05:19:28.066Z,72.00
2018-09-29T05:20:28.055Z,80.00
2018-09-29T05:21:28.043Z,84.00
2018-09-29T05:22:28.031Z,92.00
2018-09-29T05:23:28.039Z,96.00
2018-09-29T05:24:28.106Z,108.00
2018-09-29T05:25:27.998Z,108.00
2018-09-29T05:26:27.990Z,124.00
2018-09-29T05:27:27.975Z,124.00
2018-09-29T05:28:27.991Z,128.00
2018-09-29T05:29:28.009Z,136.00
2018-09-29T05:30:27.949Z,140.00
2018-09-29T05:31:27.938Z,144.00
2018-09-29T05:32:27.921Z,152.00
2018-09-29T05:33:27.910Z,144.00
2018-09-29T05:34:27.991Z,144.00
2018-09-29T05:35:27.889Z,144.00
2018-09-29T05:36:27.893Z,152.00
2018-09-29T05:37:27.865Z,160.00
2018-09-29T05:38:27.893Z,156.00
2018-09-29T05:39:27.863Z,160.00
2018-09-29T05:40:27.831Z,168.00
2018-09-29T05:41:27.819Z,184.00
2018-09-29T05:42:27.809Z,188.00
2018-09-29T05:43:27.833Z,192.00
2018-09-29T05:44:28.536Z,204.00
2018-09-29T05:45:27.779Z,208.00
2018-09-29T05:46:27.762Z,220.00
2018-09-29T05:47:27.763Z,236.00
2018-09-29T05:48:27.744Z,236.00
2018-09-29T05:49:27.742Z,248.00
2018-09-29T05:50:27.717Z,252.00
2018-09-29T05:51:27.727Z,260.00
2018-09-29T05:52:27.694Z,268.00
2018-09-29T05:53:27.683Z,276.00
2018-09-29T05:54:27.684Z,292.00
2018-09-29T05:55:27.682Z,312.00
2018-09-29T05:56:27.653Z,332.00
2018-09-29T05:57:27.666Z,344.00
2018-09-29T05:58:27.674Z,360.00
2018-09-29T05:59:27.630Z,360.00
2018-09-29T06:00:27.617Z,368.00
2018-09-29T06:01:27.592Z,372.00
2018-09-29T06:02:27.582Z,384.00
2018-09-29T06:03:27.587Z,404.00
2018-09-29T06:04:27.583Z,416.00
2018-09-29T06:05:27.637Z,420.00
2018-09-29T06:06:27.540Z,448.00
2018-09-29T06:07:27.559Z,484.00
2018-09-29T06:08:27.522Z,520.00
2018-09-29T06:09:27.594Z,552.00
2018-09-29T06:10:27.494Z,576.00
2018-09-29T06:11:27.594Z,592.00
2018-09-29T06:12:27.471Z,640.00
2018-09-29T06:13:27.464Z,688.00
2018-09-29T06:14:27.461Z,720.00
2018-09-29T06:15:27.437Z,740.00
2018-09-29T06:16:27.426Z,744.00
2018-09-29T06:17:27.415Z,744.00
2018-09-29T06:18:27.403Z,708.00
2018-09-29T06:19:27.405Z,660.00
2018-09-29T06:20:27.381Z,604.00
2018-09-29T06:21:27.370Z,572.00
2018-09-29T06:22:27.416Z,544.00
2018-09-29T06:23:27.346Z,548.00
2018-09-29T06:24:27.488Z,572.00
2018-09-29T06:25:27.409Z,652.00
2018-09-29T06:26:27.312Z,768.00
2018-09-29T06:27:27.301Z,820.00
2018-09-29T06:28:27.289Z,836.00
2018-09-29T06:29:27.292Z,904.00
2018-09-29T06:30:27.275Z,928.00
2018-09-29T06:31:27.257Z,888.00
2018-09-29T06:32:27.292Z,800.00
2018-09-29T06:33:27.271Z,764.00
2018-09-29T06:34:27.238Z,772.00
2018-09-29T06:35:27.253Z,796.00
2018-09-29T06:36:27.200Z,804.00
2018-09-29T06:37:27.262Z,804.00
2018-09-29T06:38:27.176Z,784.00
2018-09-29T06:39:27.177Z,768.00
2018-09-29T06:40:27.157Z,760.00
2018-09-29T06:41:27.170Z,756.00
2018-09-29T06:42:27.131Z,748.00
2018-09-29T06:43:27.119Z,764.00
2018-09-29T06:44:27.163Z,784.00
2018-09-29T06:45:27.102Z,808.00
2018-09-29T06:46:27.085Z,816.00
2018-09-29T06:47:27.082Z,808.00
2018-09-29T06:48:27.078Z,792.00
2018-09-29T06:49:27.071Z,784.00
2018-09-29T06:50:27.111Z,792.00
2018-09-29T06:51:27.040Z,788.00
2018-09-29T06:52:27.028Z,788.00
2018-09-29T06:53:27.044Z,792.00
2018-09-29T06:54:27.083Z,812.00
2018-09-29T06:55:26.987Z,824.00
2018-09-29T06:56:26.975Z,828.00
2018-09-29T06:57:26.963Z,832.00
2018-09-29T06:58:26.984Z,848.00
2018-09-29T06:59:26.953Z,872.00
2018-09-29T07:00:26.938Z,896.00
2018-09-29T07:01:26.953Z,992.00
2018-09-29T07:02:26.907Z,1180.00
2018-09-29T07:03:26.896Z,1356.00
2018-09-29T07:04:26.955Z,1436.00
2018-09-29T07:05:26.873Z,1484.00
2018-09-29T07:06:26.869Z,1544.00
2018-09-29T07:07:26.855Z,1588.00
2018-09-29T07:08:26.843Z,1608.00
2018-09-29T07:09:26.840Z,1620.00
2018-09-29T07:10:26.819Z,1680.00
2018-09-29T07:11:26.804Z,1684.00
2018-09-29T07:12:26.795Z,1720.00
2018-09-29T07:13:26.785Z,1736.00
2018-09-29T07:14:26.783Z,1752.00
2018-09-29T07:15:26.764Z,1796.00
2018-09-29T07:16:26.752Z,1832.00
2018-09-29T07:17:26.764Z,1924.00
2018-09-29T07:18:26.731Z,2116.00
2018-09-29T07:19:26.725Z,2564.00
2018-09-29T07:20:26.715Z,3000.00
2018-09-29T07:21:28.297Z,3320.00
2018-09-29T07:22:26.689Z,3576.00
2018-09-29T07:23:26.669Z,3548.00
2018-09-29T07:24:26.657Z,3576.00
2018-09-29T07:25:26.733Z,3676.00
2018-09-29T07:26:26.634Z,3764.00
2018-09-29T07:27:26.670Z,3812.00
2018-09-29T07:28:26.611Z,3772.00
2018-09-29T07:29:26.601Z,3472.00
2018-09-29T07:30:26.600Z,3392.00
2018-09-29T07:31:26.636Z,3404.00
2018-09-29T07:32:26.710Z,3136.00
2018-09-29T07:33:26.752Z,3004.00
2018-09-29T07:34:26.662Z,2812.00
2018-09-29T07:35:26.939Z,2496.00
2018-09-29T07:36:26.522Z,2376.00
2018-09-29T07:37:26.512Z,2564.00
2018-09-29T07:38:26.766Z,2736.00
2018-09-29T07:39:26.487Z,2456.00
2018-09-29T07:40:26.741Z,1996.00
2018-09-29T07:41:26.463Z,1908.00
2018-09-29T07:42:26.453Z,2144.00
2018-09-29T07:43:26.868Z,2148.00
2018-09-29T07:44:26.431Z,1964.00
2018-09-29T07:45:26.809Z,2228.00
2018-09-29T07:46:26.411Z,3144.00
2018-09-29T07:47:26.400Z,3928.00
2018-09-29T07:48:26.650Z,3388.00
2018-09-29T07:49:26.373Z,2268.00
2018-09-29T07:50:26.374Z,1992.00
2018-09-29T07:51:26.554Z,2240.00
2018-09-29T07:52:26.336Z,2056.00
2018-09-29T07:53:26.377Z,1932.00
2018-09-29T07:54:26.371Z,2276.00
2018-09-29T07:55:26.316Z,2672.00
2018-09-29T07:56:26.638Z,2932.00
2018-09-29T07:57:26.283Z,4204.00
2018-09-29T07:58:26.720Z,4056.00
2018-09-29T07:59:26.260Z,4088.00
2018-09-29T08:00:26.265Z,4176.00
2018-09-29T08:01:26.284Z,3304.00
2018-09-29T08:02:26.226Z,3916.00
2018-09-29T08:03:26.221Z,4596.00
2018-09-29T08:04:26.204Z,4708.00
2018-09-29T08:05:26.205Z,4432.00
2018-09-29T08:06:26.218Z,4768.00
2018-09-29T08:07:26.679Z,4728.00
2018-09-29T08:08:26.164Z,4604.00
2018-09-29T08:09:26.152Z,4492.00
2018-09-29T08:10:26.235Z,4776.00
2018-09-29T08:11:26.124Z,5468.00
2018-09-29T08:12:26.175Z,5732.00
2018-09-29T08:13:26.101Z,5696.00
2018-09-29T08:14:26.427Z,5588.00
2018-09-29T08:15:26.090Z,5624.00
2018-09-29T08:16:26.076Z,5612.00
2018-09-29T08:17:26.056Z,5516.00
2018-09-29T08:18:26.048Z,5452.00
2018-09-29T08:19:26.037Z,5228.00
2018-09-29T08:20:26.288Z,5720.00
2018-09-29T08:21:26.015Z,6120.00
2018-09-29T08:22:26.468Z,6056.00
2018-09-29T08:23:25.992Z,6196.00
2018-09-29T08:24:26.085Z,6336.00
2018-09-29T08:25:25.981Z,6476.00
2018-09-29T08:26:25.959Z,6652.00
2018-09-29T08:27:25.949Z,6932.00
2018-09-29T08:28:26.162Z,7320.00
2018-09-29T08:29:25.925Z,13056.00
2018-09-29T08:30:25.926Z,26912.00
2018-09-29T08:31:25.902Z,37056.00
2018-09-29T08:32:25.921Z,38144.00
2018-09-29T08:33:25.880Z,28288.00
2018-09-29T08:34:26.068Z,15744.00
2018-09-29T08:35:25.868Z,8852.00
2018-09-29T08:36:25.848Z,13472.00
2018-09-29T08:37:25.979Z,25984.00
2018-09-29T08:38:25.821Z,30848.00
2018-09-29T08:39:25.811Z,27616.00
2018-09-29T08:40:26.056Z,21184.00
2018-09-29T08:41:25.788Z,18208.00
2018-09-29T08:42:25.784Z,13184.00
2018-09-29T08:43:25.766Z,7412.00
2018-09-29T08:44:26.349Z,6980.00
2018-09-29T08:45:28.943Z,7352.00
2018-09-29T08:46:25.736Z,6904.00
2018-09-29T08:47:25.721Z,6276.00
2018-09-29T08:48:25.710Z,6048.00
2018-09-29T08:49:25.698Z,5972.00
2018-09-29T08:50:27.758Z,5920.00
2018-09-29T08:51:25.859Z,6148.00
2018-09-29T08:52:25.672Z,6304.00
2018-09-29T08:53:25.656Z,5888.00
2018-09-29T08:54:25.641Z,5804.00
2018-09-29T08:55:25.648Z,5932.00
2018-09-29T08:56:25.619Z,6052.00
2018-09-29T08:57:25.607Z,5784.00
2018-09-29T08:58:25.596Z,5604.00
2018-09-29T08:59:25.589Z,5396.00
2018-09-29T09:00:25.590Z,5524.00
2018-09-29T09:01:25.567Z,5504.00
2018-09-29T09:02:25.555Z,5176.00
2018-09-29T09:03:25.544Z,3460.00
2018-09-29T09:04:25.537Z,5952.00
2018-09-29T09:05:25.534Z,5676.00
2018-09-29T09:06:25.513Z,5420.00
2018-09-29T09:07:25.499Z,5360.00
2018-09-29T09:08:25.487Z,5260.00
2018-09-29T09:09:25.542Z,5132.00
2018-09-29T09:10:25.480Z,3556.00
2018-09-29T09:11:25.460Z,4724.00
2018-09-29T09:12:25.442Z,4688.00
2018-09-29T09:13:25.431Z,4096.00
2018-09-29T09:14:25.422Z,4996.00
2018-09-29T09:15:25.419Z,1632.00
2018-09-29T09:16:25.401Z,1144.00
2018-09-29T09:17:25.385Z,1212.00
2018-09-29T09:18:25.375Z,1180.00
2018-09-29T09:19:25.363Z,1164.00
2018-09-29T09:20:25.363Z,1232.00
2018-09-29T09:21:25.344Z,1320.00
2018-09-29T09:22:25.329Z,1136.00
2018-09-29T09:23:25.322Z,1104.00
2018-09-29T09:24:25.308Z,1268.00
2018-09-29T09:25:25.343Z,1436.00
2018-09-29T09:26:25.282Z,1680.00
2018-09-29T09:27:25.272Z,1408.00
2018-09-29T09:28:25.263Z,1252.00
2018-09-29T09:29:25.251Z,1152.00
2018-09-29T09:30:25.238Z,1172.00
2018-09-29T09:31:25.238Z,1156.00
2018-09-29T09:32:25.215Z,1180.00
2018-09-29T09:33:25.211Z,1332.00
2018-09-29T09:34:25.201Z,1336.00
2018-09-29T09:35:25.181Z,1464.00
2018-09-29T09:36:25.175Z,1596.00
2018-09-29T09:37:25.163Z,1932.00
2018-09-29T09:38:25.147Z,1876.00
2018-09-29T09:39:25.136Z,1832.00
2018-09-29T09:40:25.125Z,1556.00
2018-09-29T09:41:25.127Z,1356.00
2018-09-29T09:42:25.112Z,1440.00
2018-09-29T09:43:25.152Z,1436.00
2018-09-29T09:44:25.080Z,1716.00
2018-09-29T09:45:25.069Z,1436.00
2018-09-29T09:46:25.069Z,1580.00
2018-09-29T09:47:25.047Z,1348.00
2018-09-29T09:48:25.038Z,1084.00
2018-09-29T09:49:25.070Z,1252.00
2018-09-29T09:50:25.017Z,1496.00
2018-09-29T09:51:25.017Z,1516.00
2018-09-29T09:52:24.993Z,1652.00
2018-09-29T09:53:24.984Z,1644.00
2018-09-29T09:54:24.970Z,1584.00
2018-09-29T09:55:24.960Z,1736.00
2018-09-29T09:56:24.964Z,1816.00
2018-09-29T09:57:24.937Z,1776.00
2018-09-29T09:58:24.925Z,2020.00
2018-09-29T09:59:24.917Z,2272.00
2018-09-29T10:00:24.907Z,2612.00
2018-09-29T10:01:24.903Z,2508.00
2018-09-29T10:02:24.884Z,2592.00
2018-09-29T10:03:24.869Z,2492.00
2018-09-29T10:04:24.859Z,2376.00
2018-09-29T10:05:24.846Z,2204.00
2018-09-29T10:06:24.881Z,1944.00
2018-09-29T10:07:24.832Z,2044.00
2018-09-29T10:08:24.813Z,1948.00
2018-09-29T10:09:24.801Z,2264.00
2018-09-29T10:10:24.790Z,1888.00
2018-09-29T10:11:24.791Z,1672.00
2018-09-29T10:12:24.770Z,1344.00
2018-09-29T10:13:24.755Z,1216.00
2018-09-29T10:14:24.748Z,1292.00
2018-09-29T10:15:24.741Z,1412.00
2018-09-29T10:16:24.733Z,1364.00
2018-09-29T10:17:24.743Z,1512.00
2018-09-29T10:18:24.704Z,1672.00
2018-09-29T10:19:24.691Z,1564.00
2018-09-29T10:20:24.676Z,1684.00
2018-09-29T10:21:24.682Z,1768.00
2018-09-29T10:22:24.939Z,1828.00
2018-09-29T10:23:24.644Z,2196.00
2018-09-29T10:24:24.631Z,2356.00
2018-09-29T10:25:24.620Z,2000.00
2018-09-29T10:26:24.625Z,2060.00
2018-09-29T10:27:24.597Z,2020.00
2018-09-29T10:28:24.591Z,1864.00
2018-09-29T10:29:24.579Z,1880.00
2018-09-29T10:30:24.564Z,1796.00
2018-09-29T10:31:24.565Z,1628.00
2018-09-29T10:32:24.542Z,1520.00
2018-09-29T10:33:24.530Z,1596.00
2018-09-29T10:34:24.518Z,1784.00
2018-09-29T10:35:24.508Z,1780.00
2018-09-29T10:36:24.598Z,1716.00
2018-09-29T10:37:24.484Z,1708.00
2018-09-29T10:38:24.473Z,1776.00
2018-09-29T10:39:24.591Z,1612.00
2018-09-29T10:40:24.559Z,1608.00
2018-09-29T10:41:24.457Z,1472.00
2018-09-29T10:42:24.428Z,1296.00
2018-09-29T10:43:24.423Z,1412.00
2018-09-29T10:44:24.410Z,1476.00
2018-09-29T10:45:24.399Z,1540.00
2018-09-29T10:46:24.398Z,1492.00
2018-09-29T10:47:24.376Z,1352.00
2018-09-29T10:48:24.364Z,1260.00
2018-09-29T10:49:24.356Z,1212.00
2018-09-29T10:50:24.341Z,1184.00
2018-09-29T10:51:24.345Z,1252.00
2018-09-29T10:52:24.516Z,1092.00
2018-09-29T10:53:24.425Z,992.00
2018-09-29T10:54:24.295Z,932.00
2018-09-29T10:55:24.284Z,916.00
2018-09-29T10:56:24.284Z,904.00
2018-09-29T10:57:24.265Z,900.00
2018-09-29T10:58:24.255Z,920.00
2018-09-29T10:59:24.243Z,960.00
2018-09-29T11:00:24.233Z,912.00
2018-09-29T11:01:24.233Z,892.00
2018-09-29T11:02:24.210Z,876.00
2018-09-29T11:03:24.198Z,880.00
2018-09-29T11:04:24.187Z,872.00
2018-09-29T11:05:24.239Z,868.00
2018-09-29T11:06:24.184Z,856.00
2018-09-29T11:07:24.157Z,848.00
2018-09-29T11:08:24.146Z,840.00
2018-09-29T11:09:24.244Z,840.00
2018-09-29T11:10:24.189Z,844.00
2018-09-29T11:11:24.124Z,844.00
2018-09-29T11:12:24.104Z,840.00
2018-09-29T11:13:24.090Z,884.00
2018-09-29T11:14:24.085Z,940.00
2018-09-29T11:15:24.068Z,904.00
2018-09-29T11:16:24.075Z,852.00
2018-09-29T11:17:24.148Z,900.00
2018-09-29T11:18:24.033Z,876.00
2018-09-29T11:19:24.026Z,920.00
2018-09-29T11:20:24.015Z,848.00
2018-09-29T11:21:24.015Z,804.00
2018-09-29T11:22:23.995Z,796.00
2018-09-29T11:23:23.983Z,780.00
2018-09-29T11:24:23.969Z,776.00
2018-09-29T11:25:23.959Z,772.00
2018-09-29T11:26:23.960Z,788.00
2018-09-29T11:27:23.935Z,788.00
2018-09-29T11:28:23.931Z,796.00
2018-09-29T11:29:23.918Z,764.00
2018-09-29T11:30:23.906Z,752.00
2018-09-29T11:31:23.922Z,740.00
2018-09-29T11:32:23.882Z,736.00
2018-09-29T11:33:23.877Z,728.00
2018-09-29T11:34:23.862Z,712.00
2018-09-29T11:35:23.853Z,708.00
2018-09-29T11:36:23.842Z,704.00
2018-09-29T11:37:23.843Z,712.00
2018-09-29T11:38:23.818Z,700.00
2018-09-29T11:39:23.931Z,700.00
2018-09-29T11:40:23.891Z,704.00
2018-09-29T11:41:23.783Z,704.00
2018-09-29T11:42:23.783Z,708.00
2018-09-29T11:43:23.759Z,704.00
2018-09-29T11:44:23.747Z,700.00
2018-09-29T11:45:23.871Z,692.00
2018-09-29T11:46:23.801Z,696.00
2018-09-29T11:47:23.730Z,684.00
2018-09-29T11:48:23.782Z,700.00
2018-09-29T11:49:23.699Z,696.00
2018-09-29T11:50:23.684Z,704.00
2018-09-29T11:51:23.672Z,696.00
2018-09-29T11:52:23.673Z,692.00
2018-09-29T11:53:23.654Z,688.00
2018-09-29T11:54:23.730Z,684.00
2018-09-29T11:55:23.628Z,672.00
2018-09-29T11:56:23.620Z,664.00
2018-09-29T11:57:23.622Z,656.00
2018-09-29T11:58:23.595Z,644.00
2018-09-29T11:59:23.633Z,640.00
2018-09-29T12:00:23.738Z,636.00
2018-09-29T12:01:23.569Z,636.00
2018-09-29T12:02:23.624Z,632.00
2018-09-29T12:03:23.541Z,620.00
2018-09-29T12:04:23.530Z,616.00
2018-09-29T12:05:23.521Z,616.00
2018-09-29T12:06:23.564Z,612.00
2018-09-29T12:07:23.521Z,608.00
2018-09-29T12:08:23.486Z,608.00
2018-09-29T12:09:23.474Z,604.00
2018-09-29T12:10:23.465Z,604.00
2018-09-29T12:11:23.454Z,600.00
2018-09-29T12:12:23.598Z,600.00
2018-09-29T12:13:23.472Z,604.00
2018-09-29T12:14:23.418Z,604.00
2018-09-29T12:15:23.401Z,628.00
2018-09-29T12:16:23.397Z,628.00
2018-09-29T12:17:23.405Z,616.00
2018-09-29T12:18:23.376Z,624.00
2018-09-29T12:19:23.370Z,608.00
2018-09-29T12:20:23.354Z,624.00
2018-09-29T12:21:23.453Z,616.00
2018-09-29T12:22:23.445Z,600.00
2018-09-29T12:23:23.321Z,612.00
2018-09-29T12:24:23.306Z,612.00
2018-09-29T12:25:23.302Z,576.00
2018-09-29T12:26:23.287Z,572.00
2018-09-29T12:27:24.921Z,568.00
2018-09-29T12:28:23.268Z,568.00
2018-09-29T12:29:23.300Z,560.00
2018-09-29T12:30:23.241Z,556.00
2018-09-29T12:31:23.230Z,556.00
2018-09-29T12:32:23.232Z,556.00
2018-09-29T12:33:23.212Z,548.00
2018-09-29T12:34:23.205Z,548.00
2018-09-29T12:35:23.185Z,544.00
2018-09-29T12:36:23.178Z,540.00
2018-09-29T12:37:23.350Z,536.00
2018-09-29T12:38:23.151Z,532.00
2018-09-29T12:39:23.143Z,528.00
2018-09-29T12:40:23.376Z,532.00
2018-09-29T12:41:23.113Z,524.00
2018-09-29T12:42:23.113Z,524.00
2018-09-29T12:43:23.094Z,524.00
2018-09-29T12:44:23.197Z,520.00
2018-09-29T12:45:23.072Z,520.00
2018-09-29T12:46:23.060Z,520.00
2018-09-29T12:47:23.088Z,516.00
2018-09-29T12:48:23.045Z,508.00
2018-09-29T12:49:23.028Z,500.00
2018-09-29T12:50:23.016Z,496.00
2018-09-29T12:51:23.014Z,488.00
2018-09-29T12:52:23.008Z,488.00
2018-09-29T12:53:23.169Z,488.00
2018-09-29T12:54:22.970Z,480.00
2018-09-29T12:55:22.958Z,476.00
2018-09-29T12:56:22.946Z,476.00
2018-09-29T12:57:23.341Z,476.00
2018-09-29T12:58:22.926Z,468.00
2018-09-29T12:59:22.910Z,464.00
2018-09-29T13:00:22.905Z,468.00
2018-09-29T13:01:22.908Z,464.00
2018-09-29T13:02:22.897Z,464.00
2018-09-29T13:03:23.172Z,464.00
2018-09-29T13:04:22.857Z,460.00
2018-09-29T13:05:23.537Z,456.00
2018-09-29T13:06:22.833Z,456.00
2018-09-29T13:07:22.966Z,456.00
2018-09-29T13:08:22.811Z,456.00
2018-09-29T13:09:22.801Z,456.00
2018-09-29T13:10:22.791Z,452.00
2018-09-29T13:11:22.778Z,456.00
2018-09-29T13:12:22.775Z,456.00
2018-09-29T13:13:22.759Z,456.00
2018-09-29T13:14:22.976Z,452.00
2018-09-29T13:15:22.733Z,452.00
2018-09-29T13:16:22.799Z,448.00
2018-09-29T13:17:22.723Z,448.00
2018-09-29T13:18:22.696Z,448.00
2018-09-29T13:19:22.688Z,448.00
2018-09-29T13:20:22.891Z,444.00
2018-09-29T13:21:22.666Z,444.00
2018-09-29T13:22:22.669Z,444.00
2018-09-29T13:23:22.645Z,440.00
2018-09-29T13:24:22.631Z,440.00
2018-09-29T13:25:22.619Z,436.00
2018-09-29T13:26:22.950Z,436.00
2018-09-29T13:27:22.610Z,436.00
2018-09-29T13:28:22.581Z,436.00
2018-09-29T13:29:22.574Z,436.00
2018-09-29T13:30:22.563Z,436.00
2018-09-29T13:31:22.551Z,436.00
2018-09-29T13:32:22.549Z,436.00
2018-09-29T13:33:22.530Z,436.00
2018-09-29T13:34:22.518Z,436.00
2018-09-29T13:35:22.511Z,436.00
2018-09-29T13:36:22.495Z,432.00
2018-09-29T13:37:25.401Z,432.00
2018-09-29T13:38:25.349Z,432.00
2018-09-29T13:39:22.994Z,428.00
2018-09-29T13:40:22.450Z,432.00
2018-09-29T13:41:22.833Z,432.00
2018-09-29T13:42:22.423Z,428.00
2018-09-29T13:43:22.425Z,428.00
2018-09-29T13:44:22.393Z,428.00
2018-09-29T13:45:22.398Z,428.00
2018-09-29T13:46:22.381Z,428.00
2018-09-29T13:47:22.380Z,428.00
2018-09-29T13:48:22.368Z,428.00
2018-09-29T13:49:22.347Z,424.00
2018-09-29T13:50:22.336Z,428.00
2018-09-29T13:51:22.330Z,424.00
2018-09-29T13:52:22.597Z,424.00
2018-09-29T13:53:23.987Z,424.00
2018-09-29T13:54:22.352Z,424.00
2018-09-29T13:55:22.276Z,420.00
2018-09-29T13:56:22.263Z,416.00
2018-09-29T13:57:22.258Z,420.00
2018-09-29T13:58:22.250Z,420.00
2018-09-29T13:59:22.417Z,416.00
2018-09-29T14:00:22.226Z,416.00
2018-09-29T14:01:22.256Z,416.00
2018-09-29T14:02:22.315Z,412.00
2018-09-29T14:03:22.199Z,412.00
2018-09-29T14:04:22.176Z,408.00
2018-09-29T14:05:22.167Z,408.00
2018-09-29T14:06:22.153Z,404.00
2018-09-29T14:07:22.140Z,404.00
2018-09-29T14:08:22.142Z,404.00
2018-09-29T14:09:22.119Z,400.00
2018-09-29T14:10:22.264Z,404.00
2018-09-29T14:11:22.092Z,396.00
2018-09-29T14:12:22.085Z,400.00
2018-09-29T14:13:22.085Z,400.00
2018-09-29T14:14:22.065Z,396.00
2018-09-29T14:15:22.055Z,396.00
2018-09-29T14:16:22.039Z,396.00
2018-09-29T14:17:22.289Z,392.00
2018-09-29T14:18:22.663Z,392.00
2018-09-29T14:19:22.006Z,388.00
2018-09-29T14:20:22.151Z,392.00
2018-09-29T14:21:22.285Z,388.00
2018-09-29T14:22:22.076Z,392.00
2018-09-29T14:23:21.967Z,392.00
2018-09-29T14:24:21.948Z,388.00
2018-09-29T14:25:21.980Z,392.00
2018-09-29T14:26:21.925Z,388.00
2018-09-29T14:27:21.910Z,388.00
2018-09-29T14:28:22.020Z,384.00
2018-09-29T14:29:21.887Z,384.00
2018-09-29T14:30:21.876Z,388.00
2018-09-29T14:31:21.870Z,380.00
2018-09-29T14:32:21.854Z,380.00
2018-09-29T14:33:21.855Z,380.00
2018-09-29T14:34:21.836Z,380.00
2018-09-29T14:35:21.952Z,376.00
2018-09-29T14:36:21.813Z,376.00
2018-09-29T14:37:21.802Z,376.00
2018-09-29T14:38:21.798Z,376.00
2018-09-29T14:39:21.775Z,376.00
2018-09-29T14:40:21.752Z,376.00
2018-09-29T14:41:21.764Z,376.00
2018-09-29T14:42:21.741Z,372.00
2018-09-29T14:43:21.742Z,372.00
2018-09-29T14:44:21.724Z,368.00
2018-09-29T14:45:21.708Z,368.00
2018-09-29T14:46:21.696Z,364.00
2018-09-29T14:47:21.685Z,364.00
2018-09-29T14:48:21.685Z,360.00
2018-09-29T14:49:21.667Z,360.00
2018-09-29T14:50:21.651Z,356.00
2018-09-29T14:51:21.644Z,360.00
2018-09-29T14:52:21.634Z,356.00
2018-09-29T14:53:21.634Z,356.00
2018-09-29T14:54:21.606Z,356.00
2018-09-29T14:55:21.599Z,352.00
2018-09-29T14:56:21.584Z,352.00
2018-09-29T14:57:21.572Z,348.00
2018-09-29T14:58:21.581Z,348.00
2018-09-29T14:59:22.102Z,344.00
2018-09-29T15:00:21.538Z,344.00
2018-09-29T15:01:21.533Z,340.00
2018-09-29T15:02:21.519Z,340.00
2018-09-29T15:03:21.518Z,340.00
2018-09-29T15:04:21.514Z,336.00
2018-09-29T15:05:21.482Z,336.00
2018-09-29T15:06:21.479Z,336.00
2018-09-29T15:07:21.459Z,332.00
2018-09-29T15:08:21.464Z,332.00
2018-09-29T15:09:21.436Z,332.00
2018-09-29T15:10:21.471Z,328.00
2018-09-29T15:11:21.409Z,328.00
2018-09-29T15:12:21.402Z,328.00
2018-09-29T15:13:21.403Z,328.00
2018-09-29T15:14:21.601Z,328.00
2018-09-29T15:15:21.364Z,324.00
2018-09-29T15:16:21.349Z,324.00
2018-09-29T15:17:21.342Z,320.00
2018-09-29T15:18:21.355Z,320.00
2018-09-29T15:19:21.319Z,320.00
2018-09-29T15:20:21.326Z,316.00
2018-09-29T15:21:21.311Z,316.00
2018-09-29T15:22:21.286Z,312.00
2018-09-29T15:23:21.286Z,312.00
2018-09-29T15:24:21.263Z,312.00
2018-09-29T15:25:21.259Z,308.00
2018-09-29T15:26:21.241Z,304.00
2018-09-29T15:27:21.229Z,304.00
2018-09-29T15:28:21.230Z,300.00
2018-09-29T15:29:21.209Z,300.00
2018-09-29T15:30:21.195Z,300.00
2018-09-29T15:31:21.193Z,296.00
2018-09-29T15:32:21.172Z,296.00
2018-09-29T15:33:21.181Z,296.00
2018-09-29T15:34:21.506Z,296.00
2018-09-29T15:35:21.138Z,296.00
2018-09-29T15:36:21.127Z,288.00
2018-09-29T15:37:21.117Z,288.00
2018-09-29T15:38:21.116Z,284.00
2018-09-29T15:39:21.087Z,284.00
2018-09-29T15:40:21.082Z,284.00
2018-09-29T15:41:21.079Z,284.00
2018-09-29T15:42:21.131Z,280.00
2018-09-29T15:43:21.076Z,280.00
2018-09-29T15:44:21.049Z,276.00
2018-09-29T15:45:21.029Z,276.00
2018-09-29T15:46:21.017Z,276.00
2018-09-29T15:47:21.007Z,272.00
2018-09-29T15:48:20.995Z,272.00
2018-09-29T15:49:20.997Z,268.00
2018-09-29T15:50:20.976Z,264.00
2018-09-29T15:51:20.954Z,264.00
2018-09-29T15:52:21.363Z,264.00
2018-09-29T15:53:20.938Z,260.00
2018-09-29T15:54:20.940Z,260.00
2018-09-29T15:55:21.017Z,256.00
2018-09-29T15:56:20.904Z,252.00
2018-09-29T15:57:20.894Z,252.00
2018-09-29T15:58:20.882Z,252.00
2018-09-29T15:59:21.111Z,248.00
2018-09-29T16:00:20.863Z,248.00
2018-09-29T16:01:20.853Z,244.00
2018-09-29T16:02:20.899Z,240.00
2018-09-29T16:03:20.830Z,240.00
2018-09-29T16:04:20.829Z,236.00
2018-09-29T16:05:20.813Z,232.00
2018-09-29T16:06:20.795Z,236.00
2018-09-29T16:07:20.781Z,228.00
2018-09-29T16:08:20.813Z,224.00
2018-09-29T16:09:20.774Z,224.00
2018-09-29T16:10:21.219Z,220.00
2018-09-29T16:11:20.863Z,216.00
2018-09-29T16:12:20.727Z,212.00
2018-09-29T16:13:20.717Z,212.00
2018-09-29T16:14:20.797Z,204.00
2018-09-29T16:15:20.697Z,200.00
2018-09-29T16:16:20.687Z,200.00
2018-09-29T16:17:20.676Z,196.00
2018-09-29T16:18:20.667Z,196.00